Archival Weather

Los Angeles Intl

Los Angeles, California (KLAX)

Report from: Thursday, September 21, 2023 1:53 AM PDT
Current time: Saturday, March 2, 2024 12:48 AM PST

Current weather – Weather history – Daily summaries
Weather forecast

Temperature18.3°C (64.9°F)
Dew point15.6°C (60.1°F)
Winds 5 kts (2.6 m/s, 5.8 mph) South (190°)
Visibility10 mi. (16.1 km)
Clouds Few clouds 1,400 ft. (427 m)
Scattered clouds 2,100 ft. (640 m)
Ceiling: Broken clouds 4,100 ft. (1,250 m)
Altimeter29.89 in.Hg (1012 mB)
Relative humidity84 %
Density altitude674 ft. (205 m)
Sea-level pressure101.2 kPa (1012 mB, 29.88 in.Hg)
Remarks Automated weather observing station with precipitation discriminator
Pressure falling, then rising
Flight conditions Visual Meteorological Conditions
Raw dataKLAX 210853Z 19005KT 10SM FEW014 SCT021 BKN041 18/16 A2989 RMK AO2 SLP120 T01830156 55001
An error has occurred. This application may no longer respond until reloaded. Reload 🗙